Map

Track Data

SID SEASON NUMBER BASIN SUBBASIN NAME ISO_TIME NATURE LAT LON WMO_WIND WMO_PRES WMO_AGENCY TRACK_TYPE DIST2LAND LANDFALL IFLAG USA_AGENCY USA_ATCF_ID USA_LAT USA_LON USA_RECORD USA_STATUS USA_WIND USA_PRES USA_SSHS USA_R34_NE USA_R34_SE USA_R34_SW USA_R34_NW USA_R50_NE USA_R50_SE USA_R50_SW USA_R50_NW USA_R64_NE USA_R64_SE USA_R64_SW USA_R64_NW USA_POCI USA_ROCI USA_RMW USA_EYE TOKYO_LAT TOKYO_LON TOKYO_GRADE TOKYO_WIND TOKYO_PRES TOKYO_R50_DIR TOKYO_R50_LONG TOKYO_R50_SHORT TOKYO_R30_DIR TOKYO_R30_LONG TOKYO_R30_SHORT TOKYO_LAND CMA_LAT CMA_LON CMA_CAT CMA_WIND CMA_PRES HKO_LAT HKO_LON HKO_CAT HKO_WIND HKO_PRES NEWDELHI_LAT NEWDELHI_LON NEWDELHI_GRADE NEWDELHI_WIND NEWDELHI_PRES NEWDELHI_CI NEWDELHI_DP NEWDELHI_POCI REUNION_LAT REUNION_LON REUNION_TYPE REUNION_WIND REUNION_PRES REUNION_TNUM REUNION_CI REUNION_RMW REUNION_R34_NE REUNION_R34_SE REUNION_R34_SW REUNION_R34_NW REUNION_R50_NE REUNION_R50_SE REUNION_R50_SW REUNION_R50_NW REUNION_R64_NE REUNION_R64_SE REUNION_R64_SW REUNION_R64_NW BOM_LAT BOM_LON BOM_TYPE BOM_WIND BOM_PRES BOM_TNUM BOM_CI BOM_RMW BOM_R34_NE BOM_R34_SE BOM_R34_SW BOM_R34_NW BOM_R50_NE BOM_R50_SE BOM_R50_SW BOM_R50_NW BOM_R64_NE BOM_R64_SE BOM_R64_SW BOM_R64_NW BOM_ROCI BOM_POCI BOM_EYE BOM_POS_METHOD BOM_PRES_METHOD NADI_LAT NADI_LON NADI_CAT NADI_WIND NADI_PRES WELLINGTON_LAT WELLINGTON_LON WELLINGTON_WIND WELLINGTON_PRES DS824_LAT DS824_LON DS824_STAGE DS824_WIND DS824_PRES TD9636_LAT TD9636_LON TD9636_STAGE TD9636_WIND TD9636_PRES TD9635_LAT TD9635_LON TD9635_WIND TD9635_PRES TD9635_ROCI NEUMANN_LAT NEUMANN_LON NEUMANN_CLASS NEUMANN_WIND NEUMANN_PRES MLC_LAT MLC_LON MLC_CLASS MLC_WIND MLC_PRES USA_GUST BOM_GUST BOM_GUST_PER REUNION_GUST REUNION_GUST_PER USA_SEAHGT USA_SEARAD_NE USA_SEARAD_SE USA_SEARAD_SW USA_SEARAD_NW STORM_SPEED STORM_DIR
1892268N17117 1892 48 WP MM NOT_NAMED 1892-09-23 16:00:00 NR 16.7000 116.800 main 319 319 __________O___ -1 16.7000 116.800 3 0 0
1892268N17117 1892 48 WP MM NOT_NAMED 1892-09-23 18:00:00 NR 16.7056 116.796 main 319 319 __________P___ -1 16.7056 116.796 3 0 39
1892268N17117 1892 48 WP MM NOT_NAMED 1892-09-23 21:00:00 NR 16.7307 116.804 main 319 319 __________P___ -1 16.7307 116.804 3 1 34
1892268N17117 1892 48 WP MM NOT_NAMED 1892-09-24 00:00:00 NR 16.7985 116.847 main 322 311 __________P___ -1 16.7985 116.847 3 2 34
1892268N17117 1892 48 WP MM NOT_NAMED 1892-09-24 03:00:00 NR 16.9349 116.949 main 315 305 __________P___ -1 16.9349 116.949 3 4 36
1892268N17117 1892 48 WP MM NOT_NAMED 1892-09-24 04:00:00 NR 17.0000 117.000 main 308 301 __________O___ -1 17.0000 117.000 4 6 37
1892268N17117 1892 48 WP MM NOT_NAMED 1892-09-24 06:00:00 NR 17.1624 117.128 main 304 288 __________P___ -1 17.1624 117.128 4 7 37
1892268N17117 1892 48 WP MM NOT_NAMED 1892-09-24 09:00:00 NR 17.4690 117.372 main 288 281 __________P___ -1 17.4690 117.372 4 8 37
1892268N17117 1892 48 WP MM NOT_NAMED 1892-09-24 12:00:00 NR 17.8206 117.646 main 286 260 __________P___ -1 17.8206 117.646 4 9 36
1892268N17117 1892 48 WP MM NOT_NAMED 1892-09-24 15:00:00 NR 18.1828 117.917 main 262 252 __________P___ -1 18.1828 117.917 4 9 35
1892268N17117 1892 48 WP MM NOT_NAMED 1892-09-24 16:00:00 NR 18.3000 118.000 main 255 249 __________O___ -1 18.3000 118.000 4 7 32
1892268N17117 1892 48 WP MM NOT_NAMED 1892-09-24 18:00:00 NR 18.4977 118.126 main 253 241 __________P___ -1 18.4977 118.126 4 7 30
1892268N17117 1892 48 WP MM NOT_NAMED 1892-09-24 21:00:00 NR 18.7878 118.297 main 244 234 __________P___ -1 18.7878 118.297 4 7 29
1892268N17117 1892 48 WP MM NOT_NAMED 1892-09-25 00:00:00 NR 19.0814 118.460 main 234 233 __________P___ -1 19.0814 118.460 4 7 28
1892268N17117 1892 48 WP MM NOT_NAMED 1892-09-25 03:00:00 NR 19.3911 118.636 main 238 229 __________P___ -1 19.3911 118.636 4 7 29
1892268N17117 1892 48 WP MM NOT_NAMED 1892-09-25 04:00:00 NR 19.5000 118.700 main 234 232 __________O___ -1 19.5000 118.700 4 8 29
1892268N17117 1892 48 WP MM NOT_NAMED 1892-09-25 06:00:00 NR 19.7460 118.847 main 238 237 __________P___ -1 19.7460 118.847 4 9 30
1892268N17117 1892 48 WP MM NOT_NAMED 1892-09-25 09:00:00 NR 20.1342 119.086 main 244 213 __________P___ -1 20.1342 119.086 4 9 31
1892268N17117 1892 48 WP MM NOT_NAMED 1892-09-25 12:00:00 NR 20.5232 119.342 main 213 159 __________P___ -1 20.5232 119.342 4 9 33
1892268N17117 1892 48 WP MM NOT_NAMED 1892-09-25 15:00:00 NR 20.8880 119.610 main 159 144 __________P___ -1 20.8880 119.610 4 9 35
1892268N17117 1892 48 WP MM NOT_NAMED 1892-09-25 16:00:00 NR 21.0000 119.700 main 144 121 __________O___ -1 21.0000 119.700 4 8 34
1892268N17117 1892 48 WP MM NOT_NAMED 1892-09-25 18:00:00 NR 21.1997 119.836 main 121 85 __________P___ -1 21.1997 119.836 4 7 35
1892268N17117 1892 48 WP MM NOT_NAMED 1892-09-25 21:00:00 NR 21.4680 120.046 main 85 46 __________P___ -1 21.4680 120.046 4 7 40
1892268N17117 1892 48 WP MM NOT_NAMED 1892-09-26 00:00:00 NR 21.7077 120.303 main 46 0 __________P___ -1 21.7077 120.303 4 7 51
1892268N17117 1892 48 WP MM NOT_NAMED 1892-09-26 03:00:00 NR 21.9288 120.654 main 0 0 __________P___ -1 21.9288 120.654 4 8 58
1892268N17117 1892 48 WP MM NOT_NAMED 1892-09-26 04:00:00 NR 22.0000 120.800 main 0 0 __________O___ -1 22.0000 120.800 4 10 65
1892268N17117 1892 48 WP MM NOT_NAMED 1892-09-26 06:00:00 NR 22.1456 121.164 main 30 30 __________P___ -1 22.1456 121.164 4 12 69
1892268N17117 1892 48 WP MM NOT_NAMED 1892-09-26 09:00:00 NR 22.3509 121.811 main 83 83 __________P___ -1 22.3509 121.811 4 13 72
1892268N17117 1892 48 WP MM NOT_NAMED 1892-09-26 12:00:00 NR 22.5455 122.529 main 131 135 __________P___ -1 22.5455 122.529 4 14 74
1892268N17117 1892 48 WP MM NOT_NAMED 1892-09-26 15:00:00 NR 22.7361 123.262 main 199 197 __________P___ -1 22.7361 123.262 4 14 74
1892268N17117 1892 48 WP MM NOT_NAMED 1892-09-26 16:00:00 NR 22.8000 123.500 main 217 217 __________O___ -1 22.8000 123.500 4 13 73
1892268N17117 1892 48 WP MM NOT_NAMED 1892-09-26 18:00:00 NR 22.9296 123.957 main 266 266 __________P___ -1 22.9296 123.957 4 13 72
1892268N17117 1892 48 WP MM NOT_NAMED 1892-09-26 21:00:00 NR 23.1282 124.602 main 315 315 __________P___ -1 23.1282 124.602 4 12 71
1892268N17117 1892 48 WP MM NOT_NAMED 1892-09-27 00:00:00 NR 23.3299 125.213 main 361 361 __________P___ -1 23.3299 125.213 4 12 70
1892268N17117 1892 48 WP MM NOT_NAMED 1892-09-27 03:00:00 NR 23.5326 125.804 main 411 411 __________P___ -1 23.5326 125.804 4 12 69
1892268N17117 1892 48 WP MM NOT_NAMED 1892-09-27 04:00:00 NR 23.6000 126.000 main 428 __________O___ -1 23.6000 126.000 4 12 70

Digital Typhoon Data and Search

About IBTrACS Database

This database is a web-friendly format of International Best Track Archive for Climate Stewardship (IBTrACS), a global best track data archive curated by NOAA dating back to 1842.

Updated: 2021-12-03